SHT8E EGLL-EGPH
Flight info
| Callsign | SHT8E |
|---|---|
| Flight time | N/A |
| Altitude | 32000 |
| Route | ULTIB T420 TNT UN57 POL UN601 RIBEL DCT INPIP |
| Aircraft | A319/M-SDE3FGHIRWY/LB1 |
Departure
| Time | 2026-04-30 13:14 |
|---|---|
| Airport | London Heathrow Airport (EGLL) |
Arrival
| Time | N/A |
|---|---|
| Airport | Edinburgh Airport (EGPH) |
| Time | Latitude | Longitude | Altitude | Speed | Heading |
|---|---|---|---|---|---|
| 2026-04-30 12:51 | 51.47399 | -0.48589 | 86 ft | 0 kts | 270° |
| 2026-04-30 13:02 | 51.47400 | -0.48557 | 86 ft | 4 kts | 270° |
| 2026-04-30 13:03 | 51.47400 | -0.48522 | 86 ft | 4 kts | 267° |
| 2026-04-30 13:03 | 51.47406 | -0.48485 | 88 ft | 4 kts | 219° |
| 2026-04-30 13:03 | 51.47427 | -0.48475 | 88 ft | 4 kts | 179° |
| 2026-04-30 13:03 | 51.47437 | -0.48475 | 87 ft | 0 kts | 179° |
| 2026-04-30 13:08 | 51.47430 | -0.48475 | 88 ft | 2 kts | 179° |
| 2026-04-30 13:08 | 51.47407 | -0.48475 | 88 ft | 4 kts | 179° |
| 2026-04-30 13:08 | 51.47373 | -0.48474 | 86 ft | 6 kts | 179° |
| 2026-04-30 13:08 | 51.47327 | -0.48474 | 86 ft | 7 kts | 179° |
| 2026-04-30 13:09 | 51.47271 | -0.48473 | 86 ft | 9 kts | 179° |
| 2026-04-30 13:09 | 51.47203 | -0.48472 | 88 ft | 11 kts | 179° |
| 2026-04-30 13:09 | 51.47121 | -0.48471 | 86 ft | 13 kts | 179° |
| 2026-04-30 13:09 | 51.47026 | -0.48470 | 86 ft | 15 kts | 179° |
| 2026-04-30 13:10 | 51.46923 | -0.48469 | 86 ft | 14 kts | 179° |
| 2026-04-30 13:10 | 51.46823 | -0.48467 | 86 ft | 9 kts | 179° |
| 2026-04-30 13:10 | 51.46804 | -0.48467 | 86 ft | 1 kts | 179° |
| 2026-04-30 13:10 | 51.46788 | -0.48467 | 86 ft | 3 kts | 179° |
| 2026-04-30 13:11 | 51.46757 | -0.48466 | 86 ft | 5 kts | 179° |
| 2026-04-30 13:11 | 51.46715 | -0.48466 | 86 ft | 7 kts | 180° |
| 2026-04-30 13:11 | 51.46695 | -0.48466 | 86 ft | 0 kts | 180° |
| 2026-04-30 13:11 | 51.46694 | -0.48466 | 86 ft | 1 kts | 180° |
| 2026-04-30 13:12 | 51.46678 | -0.48466 | 86 ft | 3 kts | 180° |
| 2026-04-30 13:12 | 51.46642 | -0.48466 | 86 ft | 8 kts | 180° |
| 2026-04-30 13:12 | 51.46558 | -0.48466 | 87 ft | 17 kts | 180° |
| 2026-04-30 13:13 | 51.46480 | -0.48373 | 87 ft | 1 kts | 92° |
| 2026-04-30 13:13 | 51.46481 | -0.48134 | 88 ft | 50 kts | 89° |
| 2026-04-30 13:13 | 51.46498 | -0.45803 | 88 ft | 155 kts | 89° |
| 2026-04-30 13:14 | 51.46501 | -0.44038 | 659 ft | 158 kts | 91° |
| 2026-04-30 13:14 | 51.46525 | -0.42273 | 1433 ft | 160 kts | 86° |
| 2026-04-30 13:14 | 51.47895 | -0.38748 | 2349 ft | 218 kts | 54° |
| 2026-04-30 13:15 | 51.48923 | -0.36785 | 2918 ft | 241 kts | 54° |
| 2026-04-30 13:15 | 51.51166 | -0.32504 | 4564 ft | 260 kts | 56° |
| 2026-04-30 13:15 | 51.52240 | -0.30101 | 5489 ft | 261 kts | 71° |
| 2026-04-30 13:16 | 51.52871 | -0.27348 | 6393 ft | 265 kts | 76° |
| 2026-04-30 13:16 | 51.53731 | -0.24663 | 7231 ft | 281 kts | 54° |
| 2026-04-30 13:16 | 51.55337 | -0.22775 | 8099 ft | 297 kts | 25° |
| 2026-04-30 13:17 | 51.59526 | -0.22478 | 10060 ft | 311 kts | 354° |
| 2026-04-30 13:17 | 51.61689 | -0.23383 | 10534 ft | 334 kts | 337° |
| 2026-04-30 13:17 | 51.65020 | -0.26970 | 11393 ft | 355 kts | 324° |
| 2026-04-30 13:18 | 51.67735 | -0.29842 | 12382 ft | 360 kts | 329° |
| 2026-04-30 13:18 | 51.72063 | -0.33915 | 13892 ft | 367 kts | 331° |
| 2026-04-30 13:18 | 51.74294 | -0.35973 | 14583 ft | 371 kts | 330° |
| 2026-04-30 13:19 | 51.76542 | -0.38072 | 15246 ft | 375 kts | 330° |
| 2026-04-30 13:19 | 51.78799 | -0.40214 | 15833 ft | 378 kts | 329° |
| 2026-04-30 13:19 | 51.81043 | -0.42373 | 16464 ft | 382 kts | 329° |
| 2026-04-30 13:19 | 51.83366 | -0.44625 | 17107 ft | 386 kts | 329° |
| 2026-04-30 13:20 | 51.85674 | -0.46875 | 17757 ft | 389 kts | 328° |
| 2026-04-30 13:20 | 51.88007 | -0.49150 | 18439 ft | 393 kts | 328° |
| 2026-04-30 13:20 | 51.90354 | -0.51435 | 18998 ft | 396 kts | 328° |
| 2026-04-30 13:20 | 51.92726 | -0.53748 | 19550 ft | 400 kts | 329° |
| 2026-04-30 13:21 | 51.95119 | -0.56085 | 20122 ft | 403 kts | 329° |
| 2026-04-30 13:21 | 51.97528 | -0.58443 | 20681 ft | 407 kts | 329° |
| 2026-04-30 13:21 | 51.99961 | -0.60831 | 21221 ft | 411 kts | 329° |
| 2026-04-30 13:22 | 52.03906 | -0.64699 | 22060 ft | 419 kts | 329° |
| 2026-04-30 13:22 | 52.06425 | -0.67163 | 22455 ft | 425 kts | 330° |
| 2026-04-30 13:22 | 52.11347 | -0.72002 | 24179 ft | 408 kts | 329° |
| 2026-04-30 13:23 | 52.13779 | -0.74399 | 24712 ft | 410 kts | 329° |
| 2026-04-30 13:23 | 52.18682 | -0.79241 | 25614 ft | 415 kts | 329° |
| 2026-04-30 13:24 | 52.23654 | -0.84163 | 26466 ft | 420 kts | 329° |
| 2026-04-30 13:24 | 52.28681 | -0.89144 | 27266 ft | 426 kts | 329° |
| 2026-04-30 13:25 | 52.33773 | -0.94214 | 28046 ft | 431 kts | 329° |
| 2026-04-30 13:25 | 52.38921 | -0.99346 | 28807 ft | 436 kts | 329° |
| 2026-04-30 13:26 | 52.46749 | -1.07198 | 29877 ft | 443 kts | 329° |
| 2026-04-30 13:26 | 52.52016 | -1.12491 | 30551 ft | 448 kts | 329° |
| 2026-04-30 13:27 | 52.57310 | -1.17816 | 31188 ft | 452 kts | 329° |
| 2026-04-30 13:28 | 52.65531 | -1.26122 | 31769 ft | 473 kts | 328° |
| 2026-04-30 13:28 | 52.71215 | -1.31876 | 32060 ft | 482 kts | 328° |
| 2026-04-30 13:28 | 52.74108 | -1.34821 | 32252 ft | 483 kts | 328° |
| 2026-04-30 13:29 | 52.85472 | -1.46452 | 32247 ft | 481 kts | 328° |
| 2026-04-30 13:31 | 52.99717 | -1.61108 | 32249 ft | 483 kts | 327° |
| 2026-04-30 13:31 | 53.08590 | -1.68985 | 32246 ft | 483 kts | 340° |
| 2026-04-30 13:32 | 53.14897 | -1.72876 | 32253 ft | 483 kts | 340° |
| 2026-04-30 13:33 | 53.27509 | -1.80717 | 32256 ft | 484 kts | 340° |
| 2026-04-30 13:34 | 53.36973 | -1.86630 | 32243 ft | 484 kts | 340° |
| 2026-04-30 13:35 | 53.49632 | -1.94598 | 32250 ft | 484 kts | 340° |
| 2026-04-30 13:36 | 53.62237 | -2.02574 | 32248 ft | 484 kts | 340° |
| 2026-04-30 13:36 | 53.71651 | -2.08568 | 32266 ft | 484 kts | 339° |
| 2026-04-30 13:37 | 53.78965 | -2.13526 | 32243 ft | 487 kts | 338° |
| 2026-04-30 13:38 | 53.84820 | -2.17507 | 32244 ft | 487 kts | 338° |